Jackson, MS (39236)

10:49 AM CST on December 25, 2014 (GMT -0600)
Brinkly | Change Station
CLOSE
Current Station
Personal Weather Station
Location: Jackson, MS
Elevation: 344 ft
Nearby Weather Stations

Elev 344 ft 32.35 °N, 90.20 °W | Updated 10 minutes ago

Clear
Clear
49.1 °F
Feels Like 49 °F
N
2.2
Wind Variable Wind from SSE

Today
High -- | Low -- °F
--% Chance of Precip.
Yesterday
High -- | Low -- °F
Precip. -- in
6:59 AM 5:01 PM
Waxing Crescent, 17% visible
Pressure 30.24 in
Visibility 10.0 miles
Clouds Clear
Windchill 49 °F
Dew Point 46 °F
Humidity 89%
Rainfall 0.00 in
Snow Depth Not available.
UV 2 out of 12
Pollen 1.50 out of 12
Air Quality Not available.
Flu Activity Not available.
METAR KHKS 251553Z 17005KT 10SM CLR 08/02 A3025 RMK AO2 SLP239 T00780017

More Conditions Fewer Conditions

Pressure 30.24 in
Visibility 10.0 miles
Clouds Clear
Windchill 49 °F
Dew Point 46 °F
Humidity 89%
Rainfall 0.00 in
Snow Depth Not available.
UV 2 out of 12
Pollen 1.50 out of 12
Air Quality Not available.
Flu Activity Not available.
METAR KHKS 251553Z 17005KT 10SM CLR 08/02 A3025 RMK AO2 SLP239 T00780017

More Conditions Fewer Conditions

10-Day Weather Forecast

Almanac

Astronomy

Dec. 25, 2014 Rise Set
Actual Time
Civil Twilight
Nautical Twilight
Astronomical Twilight
Moon
Length of Visible Light
Length of Day
Tomorrow will be .
, % of the Moon is Illuminated

Today's Extremes

State Highs State Lows

Community

WunderPhotos

Upload Photos

1,780,339 photos uploaded!

WunderBlogs® & News

Nearby

Air Quality

  Air Quality AQ Index Pollutant
Not available.

Snow Depth

Station Depth Elevation

Earthquake Activity

City Distance Mag. Time & Date
Minimum magnitude displayed is 2.5.

Coastal Water Temperatures

Place Temperature

Nearby Weather Stations